Time;durP1;ratioP1;P1;durP2;ratioP2;P2;SDS_P1;SDS_P2;PMS_P1;PMS_P2;Temp;Humidity;BMP_temperature;BMP_pressure;BME280_temperature;BME280_humidity;BME280_pressure;Samples;Min_cycle;Max_cycle;Signal;HPM_P1;HPM_P2
2022/05/12 00:00:46;;;;;;;5.00;3.22;;;;;;;18.62;47.33;98308.56;1743151;82;25788;-62
2022/05/12 00:03:13;;;;;;;6.00;3.87;;;;;;;18.63;47.07;98305.20;1743184;81;25686;-60
2022/05/12 00:05:39;;;;;;;3.95;3.27;;;;;;;18.66;46.93;98306.65;1742970;82;28401;-61
2022/05/12 00:08:06;;;;;;;6.60;3.98;;;;;;;18.66;46.69;98294.73;1743039;82;25655;-61
2022/05/12 00:10:32;;;;;;;4.75;3.60;;;;;;;18.73;46.51;98302.34;1743159;81;25473;-62
2022/05/12 00:12:59;;;;;;;4.45;3.52;;;;;;;18.77;46.55;98299.03;1742836;81;25810;-62
2022/05/12 00:15:30;;;;;;;4.97;3.25;;;;;;;18.75;46.54;98299.41;1743233;82;25567;-61
2022/05/12 00:17:56;;;;;;;6.15;3.80;;;;;;;18.73;46.80;98300.95;1743009;81;28324;-63
2022/05/12 00:20:24;;;;;;;4.85;3.80;;;;;;;18.70;46.80;98302.52;1715124;82;25655;-61
2022/05/12 00:22:51;;;;;;;5.70;4.35;;;;;;;18.65;46.93;98301.47;1743120;81;25644;-61
2022/05/12 00:25:23;;;;;;;9.25;4.60;;;;;;;18.60;47.08;98303.98;1742980;81;25745;-61
2022/05/12 00:27:49;;;;;;;5.35;4.30;;;;;;;18.56;47.30;98301.16;1743012;81;25493;-60
2022/05/12 00:30:16;;;;;;;10.30;5.62;;;;;;;18.51;47.34;98296.53;1743120;81;28297;-61
2022/05/12 00:32:45;;;;;;;15.13;9.28;;;;;;;18.45;47.48;98294.66;1742951;81;25641;-60
2022/05/12 00:35:14;;;;;;;7.75;5.08;;;;;;;18.38;47.59;98294.56;1743042;81;25436;-63
2022/05/12 00:37:40;;;;;;;9.70;6.10;;;;;;;18.31;47.74;98295.29;1743209;81;25686;-61
2022/05/12 00:40:08;;;;;;;9.70;5.67;;;;;;;18.25;48.01;98289.85;1743183;81;25662;-61
2022/05/12 00:42:34;;;;;;;7.87;6.47;;;;;;;18.19;48.00;98293.52;1742956;81;27601;-61
2022/05/12 00:45:00;;;;;;;5.70;4.42;;;;;;;18.14;48.08;98289.70;1743041;81;25640;-61
2022/05/12 00:47:26;;;;;;;5.47;4.42;;;;;;;18.08;48.16;98289.20;1743036;82;25658;-59
2022/05/12 00:49:54;;;;;;;5.40;4.03;;;;;;;18.02;48.26;98288.70;1743182;82;25758;-62
2022/05/12 00:52:26;;;;;;;8.20;4.12;;;;;;;17.99;48.30;98284.50;1742877;81;25621;-61
2022/05/12 00:55:06;;;;;;;4.47;3.72;;;;;;;17.95;48.46;98281.66;1742902;81;27502;-56
2022/05/12 00:57:37;;;;;;;4.57;3.93;;;;;;;17.91;48.82;98274.67;1743316;81;25657;-57
2022/05/12 01:00:08;;;;;;;5.08;4.10;;;;;;;17.86;48.73;98275.01;1741658;81;25449;-56
2022/05/12 01:02:36;;;;;;;6.15;4.35;;;;;;;17.82;48.70;98276.93;1743272;81;25704;-56
2022/05/12 01:05:03;;;;;;;4.42;3.62;;;;;;;17.77;48.85;98278.62;1743022;81;25657;-56
2022/05/12 01:07:29;;;;;;;4.40;3.30;;;;;;;17.74;49.08;98275.20;1743108;82;27820;-57
2022/05/12 01:09:56;;;;;;;7.10;3.98;;;;;;;17.72;48.93;98277.54;1742515;82;25673;-57
2022/05/12 01:12:24;;;;;;;3.98;3.67;;;;;;;17.70;48.88;98268.81;1742671;82;25443;-56
2022/05/12 01:14:50;;;;;;;5.35;3.27;;;;;;;17.67;49.06;98266.18;1742808;81;26073;-56
2022/05/12 01:17:19;;;;;;;5.62;3.42;;;;;;;17.65;48.93;98267.94;1743056;81;25444;-61
2022/05/12 01:19:48;;;;;;;5.90;3.33;;;;;;;17.66;48.89;98272.91;1743098;81;27422;-62
2022/05/12 01:22:35;;;;;;;3.80;2.95;;;;;;;17.64;48.83;98264.96;1755627;81;25947;-61
2022/05/12 01:25:12;;;;;;;4.30;3.25;;;;;;;17.65;48.77;98262.39;1755996;81;25726;-62
2022/05/12 01:27:42;;;;;;;3.83;3.10;;;;;;;17.69;48.65;98258.31;1755705;81;26550;-62
2022/05/12 01:30:12;;;;;;;4.62;3.42;;;;;;;17.72;48.74;98263.69;1756156;81;25463;-61
2022/05/12 01:32:38;;;;;;;5.03;3.80;;;;;;;17.74;48.64;98267.70;1756378;81;28274;-61
2022/05/12 01:35:07;;;;;;;6.67;3.45;;;;;;;17.77;48.35;98263.37;1756308;81;25491;-62
2022/05/12 01:37:38;;;;;;;3.80;2.92;;;;;;;17.77;48.47;98262.80;1756341;81;25699;-63
2022/05/12 01:40:07;;;;;;;4.58;2.95;;;;;;;17.79;48.51;98259.66;1755719;81;27133;-62
2022/05/12 01:42:32;;;;;;;3.42;2.83;;;;;;;17.79;48.43;98263.81;1756388;81;25677;-62
2022/05/12 01:44:58;;;;;;;2.92;2.60;;;;;;;17.80;48.33;98248.78;1756464;81;27371;-56
2022/05/12 01:47:24;;;;;;;5.80;3.15;;;;;;;17.83;48.26;98245.27;1756736;81;25689;-56
2022/05/12 01:49:50;;;;;;;4.60;3.70;;;;;;;17.88;48.13;98249.69;1756283;81;25614;-57
2022/05/12 01:52:17;;;;;;;5.78;3.58;;;;;;;17.89;48.18;98254.86;1756298;81;25832;-56
2022/05/12 01:54:43;;;;;;;5.03;3.70;;;;;;;17.91;48.05;98253.88;1756379;81;25597;-56
2022/05/12 01:57:09;;;;;;;5.97;3.80;;;;;;;17.91;48.09;98255.27;1756300;81;27446;-56
2022/05/12 01:59:35;;;;;;;5.72;4.12;;;;;;;17.92;48.18;98254.11;1756294;81;25752;-56
2022/05/12 02:02:03;;;;;;;4.92;4.05;;;;;;;17.93;48.22;98256.28;1756228;81;25665;-56
2022/05/12 02:04:29;;;;;;;10.03;3.62;;;;;;;17.91;48.26;98258.04;1756064;81;25405;-56
2022/05/12 02:06:55;;;;;;;6.47;3.30;;;;;;;17.89;48.41;98257.63;1756234;81;25673;-56
2022/05/12 02:09:21;;;;;;;6.85;3.90;;;;;;;17.88;48.41;98258.78;1756111;81;27824;-56
2022/05/12 02:11:47;;;;;;;7.70;3.90;;;;;;;17.87;48.38;98250.27;1756179;81;25504;-56
2022/05/12 02:14:14;;;;;;;6.05;3.95;;;;;;;17.82;48.63;98253.38;1756335;81;25492;-56
2022/05/12 02:16:41;;;;;;;4.97;3.72;;;;;;;17.81;48.63;98257.30;1756368;81;26558;-56
2022/05/12 02:19:09;;;;;;;6.03;4.00;;;;;;;17.78;48.67;98245.56;1756326;81;25620;-58
2022/05/12 02:21:36;;;;;;;12.85;6.22;;;;;;;17.76;48.83;98245.16;1755886;81;27428;-57
2022/05/12 02:24:03;;;;;;;5.53;3.33;;;;;;;17.73;48.86;98248.07;1756187;81;25452;-56
2022/05/12 02:26:30;;;;;;;7.22;3.92;;;;;;;17.71;48.98;98249.63;1756114;81;25685;-57
2022/05/12 02:28:56;;;;;;;8.55;5.10;;;;;;;17.66;49.06;98250.73;1756400;81;25695;-56
2022/05/12 02:31:23;;;;;;;5.42;3.72;;;;;;;17.62;49.25;98247.90;1756546;81;25618;-56
2022/05/12 02:33:49;;;;;;;5.65;3.75;;;;;;;17.61;49.22;98249.66;1756283;81;26826;-57
2022/05/12 02:36:16;;;;;;;5.37;3.58;;;;;;;17.54;49.49;98247.02;1756262;81;25718;-56
2022/05/12 02:38:42;;;;;;;4.58;3.17;;;;;;;17.51;49.62;98256.64;1756394;81;25672;-62
2022/05/12 02:41:08;;;;;;;5.35;3.83;;;;;;;17.45;49.64;98245.08;1756281;81;26004;-62
2022/05/12 02:43:34;;;;;;;5.97;4.40;;;;;;;17.40;49.64;98261.42;1756369;81;25606;-61
2022/05/12 02:46:05;;;;;;;5.85;4.35;;;;;;;17.36;49.75;98252.83;1756358;81;28337;-62
2022/05/12 02:48:36;;;;;;;5.45;4.47;;;;;;;17.30;50.41;98253.73;1756205;81;26066;-60
2022/05/12 02:51:02;;;;;;;6.22;4.47;;;;;;;17.22;50.35;98251.42;1756392;81;25674;-60
2022/05/12 02:53:30;;;;;;;5.95;3.77;;;;;;;17.15;50.57;98245.73;1755983;81;25798;-60
2022/05/12 02:55:57;;;;;;;5.00;3.62;;;;;;;17.08;50.96;98253.92;1756261;81;25479;-60
2022/05/12 02:58:23;;;;;;;6.30;3.40;;;;;;;17.05;51.06;98242.98;1756287;81;27534;-62
2022/05/12 03:00:50;;;;;;;4.42;3.70;;;;;;;17.04;51.20;98257.39;1756211;81;26004;-62
2022/05/12 03:03:16;;;;;;;5.05;3.92;;;;;;;17.05;51.12;98248.52;1755928;81;25708;-61
2022/05/12 03:05:42;;;;;;;5.30;3.95;;;;;;;17.04;51.12;98255.23;1756064;81;26595;-61
2022/05/12 03:08:09;;;;;;;5.33;3.50;;;;;;;17.04;51.37;98258.00;1756382;81;25440;-61
2022/05/12 03:10:37;;;;;;;4.55;3.77;;;;;;;17.04;51.90;98254.63;1756067;81;28417;-60
2022/05/12 03:13:04;;;;;;;5.42;3.67;;;;;;;17.03;51.98;98257.19;1756308;81;25662;-61
2022/05/12 03:15:30;;;;;;;5.83;3.85;;;;;;;17.02;52.03;98251.44;1756151;81;25588;-61
2022/05/12 03:17:57;;;;;;;5.53;3.65;;;;;;;17.05;51.83;98247.13;1756095;81;25661;-60
2022/05/12 03:20:26;;;;;;;4.10;3.70;;;;;;;17.06;52.07;98244.00;1756110;81;25642;-62
2022/05/12 03:22:53;;;;;;;5.03;3.98;;;;;;;17.11;51.94;98247.65;1755888;81;27438;-61
2022/05/12 03:25:21;;;;;;;4.05;3.37;;;;;;;17.11;52.09;98242.11;1756076;81;25853;-58
2022/05/12 03:27:47;;;;;;;5.08;4.37;;;;;;;17.11;52.24;98247.65;1756449;81;25686;-56
2022/05/12 03:30:18;;;;;;;5.67;4.37;;;;;;;17.11;52.08;98245.69;1756212;81;26453;-62
2022/05/12 03:32:44;;;;;;;4.42;3.47;;;;;;;17.12;52.30;98250.63;1756224;81;25574;-62
2022/05/12 03:35:12;;;;;;;9.08;4.08;;;;;;;17.10;52.23;98245.45;1756214;81;28443;-57
2022/05/12 03:37:39;;;;;;;6.65;4.20;;;;;;;17.11;52.55;98251.23;1756347;81;25612;-57
2022/05/12 03:40:08;;;;;;;6.92;5.08;;;;;;;17.10;52.49;98255.75;1756481;81;25413;-57
2022/05/12 03:42:34;;;;;;;5.75;4.47;;;;;;;17.09;52.42;98251.36;1756395;81;26445;-57
2022/05/12 03:45:00;;;;;;;5.05;4.22;;;;;;;17.09;52.69;98241.67;1756480;81;25448;-57
2022/05/12 03:47:33;;;;;;;8.65;4.42;;;;;;;17.07;53.15;98236.50;1756564;81;28086;-57
2022/05/12 03:50:04;;;;;;;6.92;4.45;;;;;;;17.10;52.94;98245.45;1756026;81;25643;-57
2022/05/12 03:52:31;;;;;;;4.72;4.03;;;;;;;17.14;53.18;98239.99;1756514;81;25822;-58
2022/05/12 03:54:58;;;;;;;6.72;4.03;;;;;;;17.22;53.12;98249.23;1756279;81;26536;-58
2022/05/12 03:57:28;;;;;;;7.55;4.47;;;;;;;17.29;52.90;98250.73;1756530;81;25495;-57
2022/05/12 03:59:54;;;;;;;5.35;4.62;;;;;;;17.35;52.95;98255.37;1756367;81;27464;-57
2022/05/12 04:02:22;;;;;;;7.55;4.80;;;;;;;17.41;52.97;98262.20;1756232;81;25679;-62
2022/05/12 04:04:49;;;;;;;7.70;4.75;;;;;;;17.47;53.01;98262.71;1756432;81;25547;-62
2022/05/12 04:07:19;;;;;;;9.03;4.70;;;;;;;17.54;53.26;98262.83;1756246;81;26468;-61
2022/05/12 04:09:46;;;;;;;7.47;4.15;;;;;;;17.63;52.77;98260.60;1756540;81;25448;-62
2022/05/12 04:12:12;;;;;;;6.00;4.35;;;;;;;17.71;52.77;98255.97;1756425;81;28175;-61
2022/05/12 04:14:40;;;;;;;7.22;4.45;;;;;;;17.82;52.55;98260.30;1756542;81;25646;-63
2022/05/12 04:17:08;;;;;;;6.55;4.45;;;;;;;17.91;52.49;98251.72;1756344;81;25681;-63
2022/05/12 04:19:34;;;;;;;6.55;4.37;;;;;;;17.99;52.48;98258.95;1756061;81;25766;-63
2022/05/12 04:22:00;;;;;;;4.95;4.40;;;;;;;18.07;52.98;98268.17;1756240;81;25632;-63
2022/05/12 04:24:26;;;;;;;6.12;4.20;;;;;;;18.18;52.36;98264.20;1756364;81;27044;-63
2022/05/12 04:26:52;;;;;;;8.60;4.53;;;;;;;18.25;52.26;98257.95;1756400;81;25923;-62
2022/05/12 04:29:18;;;;;;;5.37;4.42;;;;;;;18.33;52.34;98261.63;1756494;81;25677;-61
2022/05/12 04:31:44;;;;;;;5.92;4.10;;;;;;;18.41;52.21;98252.20;1756430;81;25826;-63
2022/05/12 04:36:54;;;;;;;12.50;4.42;;;;;;;18.52;51.81;98265.64;1756099;81;27439;-62
2022/05/12 04:39:20;;;;;;;5.80;4.42;;;;;;;18.59;51.95;98256.59;1756364;81;25504;-58
2022/05/12 04:41:46;;;;;;;4.35;3.25;;;;;;;18.64;51.91;98253.48;1756402;81;25687;-58
2022/05/12 04:44:13;;;;;;;4.80;3.75;;;;;;;18.69;51.63;98265.63;1756406;81;26573;-57
2022/05/12 04:46:43;;;;;;;11.68;5.55;;;;;;;18.76;51.46;98263.53;1756167;81;25576;-57
2022/05/12 04:49:11;;;;;;;7.78;4.70;;;;;;;18.86;51.43;98263.45;1756013;81;27409;-57
2022/05/12 04:51:38;;;;;;;6.67;5.17;;;;;;;18.99;52.12;98261.20;1756200;81;25444;-57
2022/05/12 04:54:09;;;;;;;7.25;5.08;;;;;;;19.15;51.91;98266.56;1756433;81;25443;-57
2022/05/12 04:56:40;;;;;;;10.80;6.22;;;;;;;19.24;50.86;98257.10;1756217;81;25737;-57
2022/05/12 04:59:08;;;;;;;11.20;5.25;;;;;;;19.33;50.94;98270.67;1756324;81;25635;-58
2022/05/12 05:01:35;;;;;;;9.23;5.30;;;;;;;19.45;50.65;98275.16;1756523;81;27542;-58
2022/05/12 05:04:03;;;;;;;9.43;5.03;;;;;;;19.58;50.96;98272.88;1756307;81;25918;-58
2022/05/12 05:06:31;;;;;;;10.45;5.97;;;;;;;19.62;50.39;98273.12;1756007;81;25650;-59
2022/05/12 05:08:58;;;;;;;7.40;4.62;;;;;;;19.65;50.40;98275.70;1756363;81;25764;-57
2022/05/12 05:11:24;;;;;;;9.15;5.58;;;;;;;19.67;50.34;98265.83;1756450;81;25432;-57
2022/05/12 05:13:58;;;;;;;6.83;4.72;;;;;;;19.77;50.15;98266.27;1756675;81;28229;-57
2022/05/12 05:16:25;;;;;;;9.40;4.95;;;;;;;19.87;50.23;98264.76;1756327;81;25670;-57
2022/05/12 05:18:52;;;;;;;9.68;5.08;;;;;;;19.96;49.92;98271.37;1756437;81;25511;-57
2022/05/12 05:21:18;;;;;;;8.75;4.62;;;;;;;20.05;49.92;98264.91;1756205;81;25923;-57
2022/05/12 05:23:44;;;;;;;8.33;4.75;;;;;;;20.16;49.76;98267.75;1756463;81;25649;-57
2022/05/12 05:26:10;;;;;;;5.92;4.55;;;;;;;20.31;49.53;98265.84;1756465;81;27620;-61
2022/05/12 05:28:36;;;;;;;8.88;5.15;;;;;;;20.41;49.24;98272.66;1756316;81;25846;-62
2022/05/12 05:31:04;;;;;;;4.92;3.95;;;;;;;20.53;49.69;98269.52;1756237;81;25695;-63
2022/05/12 05:33:31;;;;;;;8.70;5.15;;;;;;;20.66;48.76;98270.56;1756324;81;25740;-60
2022/05/12 05:35:58;;;;;;;11.80;4.28;;;;;;;20.78;49.06;98277.79;1756352;81;25579;-63
2022/05/12 05:38:26;;;;;;;8.68;4.83;;;;;;;20.92;48.38;98275.06;1756026;81;27403;-60
2022/05/12 05:40:53;;;;;;;11.43;4.85;;;;;;;21.03;49.24;98278.47;1756221;81;25612;-63
2022/05/12 05:43:20;;;;;;;7.95;4.62;;;;;;;21.18;48.23;98277.31;1756303;81;25470;-63
2022/05/12 05:45:47;;;;;;;7.58;3.85;;;;;;;21.34;48.76;98276.14;1756163;81;26515;-63
2022/05/12 05:48:14;;;;;;;5.60;3.77;;;;;;;21.52;48.10;98275.34;1756225;81;25645;-61
2022/05/12 05:53:35;;;;;;;8.55;4.95;;;;;;;21.77;47.33;98271.80;1755933;81;25578;-65
2022/05/12 05:56:04;;;;;;;7.92;3.67;;;;;;;21.81;47.80;98271.19;1756152;81;25658;-56
2022/05/12 05:58:31;;;;;;;6.90;4.10;;;;;;;21.86;46.43;98266.61;1756282;81;25729;-55
2022/05/12 06:00:58;;;;;;;6.58;4.08;;;;;;;21.90;46.27;98272.17;1756216;81;25633;-60
2022/05/12 06:03:26;;;;;;;6.58;3.95;;;;;;;21.94;46.72;98275.16;1755942;81;27570;-57
2022/05/12 06:05:53;;;;;;;8.15;4.08;;;;;;;22.10;46.86;98278.13;1756371;81;25441;-56
2022/05/12 06:08:20;;;;;;;5.53;4.17;;;;;;;22.27;46.61;98285.45;1756389;81;25654;-58
2022/05/12 06:10:48;;;;;;;6.90;4.08;;;;;;;22.39;47.23;98288.44;1756079;81;25683;-53
2022/05/12 06:13:15;;;;;;;6.55;4.05;;;;;;;22.58;46.03;98289.98;1756225;81;25689;-59
2022/05/12 06:15:43;;;;;;;8.43;4.35;;;;;;;22.71;45.79;98295.91;1756283;81;27835;-53
2022/05/12 06:18:17;;;;;;;8.63;4.50;;;;;;;22.87;46.91;98299.64;1755927;81;25664;-56
2022/05/12 06:20:45;;;;;;;6.35;3.58;;;;;;;23.06;46.08;98291.34;1756165;81;25495;-54
2022/05/12 06:23:13;;;;;;;8.15;2.90;;;;;;;23.26;44.55;98282.44;1756326;81;25658;-53
2022/05/12 06:25:40;;;;;;;9.00;3.87;;;;;;;23.39;43.59;98286.98;1756296;81;25593;-53
2022/05/12 06:28:07;;;;;;;4.22;3.22;;;;;;;23.53;44.72;98281.90;1756229;81;27330;-53
2022/05/12 06:30:35;;;;;;;4.28;3.22;;;;;;;23.62;43.04;98280.02;1756151;81;25641;-52
2022/05/12 06:33:02;;;;;;;8.50;3.80;;;;;;;23.71;43.21;98275.34;1755991;81;25668;-54
2022/05/12 06:35:28;;;;;;;5.10;3.40;;;;;;;23.88;43.60;98276.41;1756306;81;26077;-53
2022/05/12 06:37:55;;;;;;;7.28;3.65;;;;;;;24.00;42.81;98278.51;1756230;81;25708;-53
2022/05/12 06:40:23;;;;;;;8.08;3.83;;;;;;;24.06;42.67;98270.63;1755990;81;27474;-51
2022/05/12 06:42:50;;;;;;;7.97;3.45;;;;;;;24.19;43.50;98281.33;1756013;81;25420;-53
2022/05/12 06:45:20;;;;;;;9.43;3.70;;;;;;;24.44;42.18;98276.06;1756260;81;25633;-53
2022/05/12 06:47:52;;;;;;;5.87;3.33;;;;;;;24.59;42.72;98268.28;1756487;81;25699;-59
2022/05/12 06:50:24;;;;;;;8.75;3.80;;;;;;;24.82;41.20;98261.19;1756232;81;25684;-63
2022/05/12 06:52:51;;;;;;;10.15;3.80;;;;;;;24.98;41.26;98272.42;1754850;81;26635;-63
2022/05/12 06:55:19;;;;;;;7.17;3.55;;;;;;;25.24;43.81;98271.45;1755867;81;25703;-63
2022/05/12 06:57:46;;;;;;;7.80;4.05;;;;;;;25.60;40.65;98271.48;1756083;81;25464;-64
2022/05/12 07:00:16;;;;;;;11.28;3.55;;;;;;;25.83;41.71;98275.53;1756208;81;26056;-65
2022/05/12 07:02:45;;;;;;;8.50;3.35;;;;;;;26.02;40.60;98286.64;1756117;81;25678;-65
2022/05/12 07:05:14;;;;;;;5.15;3.25;;;;;;;26.12;38.03;98279.23;1756448;81;27985;-66
2022/05/12 07:07:42;;;;;;;7.55;3.85;;;;;;;26.00;38.21;98298.30;1754885;81;25723;-65
2022/05/12 07:10:10;;;;;;;5.60;3.33;;;;;;;25.94;39.44;98304.22;1756382;81;25633;-63
2022/05/12 07:12:37;;;;;;;4.72;3.00;;;;;;;26.15;39.29;98300.83;1756346;81;25693;-66
2022/05/12 07:15:06;;;;;;;4.15;3.45;;;;;;;26.33;38.02;98299.13;1756086;81;25440;-61
2022/05/12 07:17:33;;;;;;;11.15;4.33;;;;;;;26.45;39.21;98304.70;1756402;81;27367;-63
2022/05/12 07:28:15;;;;;;;5.97;3.45;;;;;;;27.26;36.35;98316.53;1742847;82;25647;-66
2022/05/12 07:33:30;;;;;;;6.70;3.08;;;;;;;26.81;37.21;98331.31;1742682;82;25465;-56
2022/05/12 07:35:57;;;;;;;8.10;3.60;;;;;;;26.87;37.95;98332.98;1741638;81;25703;-57
2022/05/12 07:38:24;;;;;;;6.80;3.40;;;;;;;26.89;38.48;98329.95;1743046;81;25938;-56
2022/05/12 07:40:51;;;;;;;9.33;3.50;;;;;;;26.81;38.21;98333.52;1742918;81;25667;-56
2022/05/12 07:43:18;;;;;;;6.95;3.62;;;;;;;26.85;38.63;98343.89;1742758;81;27599;-55
2022/05/12 07:45:45;;;;;;;9.68;3.80;;;;;;;26.77;37.68;98335.59;1742938;81;25645;-55
2022/05/12 07:48:12;;;;;;;6.40;3.50;;;;;;;26.71;38.35;98345.75;1743002;81;25717;-55
2022/05/12 07:50:40;;;;;;;5.95;3.52;;;;;;;26.71;38.13;98333.09;1743028;81;25709;-57
2022/05/12 07:53:08;;;;;;;4.75;3.80;;;;;;;26.62;39.15;98330.09;1742893;81;25651;-58
2022/05/12 07:55:35;;;;;;;6.28;3.67;;;;;;;26.69;39.60;98329.31;1743066;81;27547;-57
2022/05/12 07:58:03;;;;;;;6.30;3.60;;;;;;;26.80;39.92;98326.29;1742969;82;25646;-55
2022/05/12 08:00:32;;;;;;;10.43;3.50;;;;;;;26.82;39.88;98332.88;1743154;81;25505;-54
2022/05/12 08:02:59;;;;;;;6.05;3.22;;;;;;;26.86;38.43;98337.84;1743102;82;25722;-55
2022/05/12 08:05:27;;;;;;;5.17;3.40;;;;;;;26.84;38.36;98340.88;1742804;82;25685;-52
2022/05/12 08:07:55;;;;;;;6.53;3.50;;;;;;;26.81;38.26;98339.14;1742728;81;27072;-56
2022/05/12 08:10:22;;;;;;;7.78;3.33;;;;;;;26.77;39.01;98342.61;1742936;81;25416;-56
2022/05/12 08:12:49;;;;;;;7.70;3.30;;;;;;;26.93;37.93;98343.91;1743034;82;25677;-61
2022/05/12 08:15:18;;;;;;;5.15;3.00;;;;;;;27.14;38.10;98342.69;1742990;81;25755;-60
2022/05/12 08:17:44;;;;;;;5.87;3.30;;;;;;;27.23;38.67;98340.67;1743068;82;25590;-58
2022/05/12 08:20:12;;;;;;;4.25;3.52;;;;;;;27.28;38.01;98338.77;1742881;81;27871;-58
2022/05/12 08:22:39;;;;;;;6.92;3.30;;;;;;;27.53;38.85;98338.02;1745118;81;25496;-65
2022/05/12 08:25:08;;;;;;;4.53;3.35;;;;;;;27.79;38.02;98350.90;1756501;81;25622;-65
2022/05/12 08:27:36;;;;;;;8.90;3.57;;;;;;;28.04;38.07;98343.86;1756894;81;25746;-66
2022/05/12 08:30:10;;;;;;;7.35;3.37;;;;;;;28.33;36.54;98336.09;1756120;81;25461;-64
2022/05/12 08:32:37;;;;;;;6.25;3.17;;;;;;;28.46;36.93;98336.14;1756354;81;27448;-64
2022/05/12 08:35:05;;;;;;;7.03;3.20;;;;;;;28.71;37.10;98331.03;1756131;81;25682;-66
2022/05/12 08:37:32;;;;;;;6.85;3.42;;;;;;;28.83;36.03;98329.48;1756522;81;25481;-65
2022/05/12 08:39:59;;;;;;;4.70;2.77;;;;;;;29.16;36.62;98335.77;1756152;81;25806;-56
2022/05/12 08:42:40;;;;;;;6.58;2.87;;;;;;;29.63;34.26;98333.57;1756277;81;25650;-56
2022/05/12 08:45:11;;;;;;;4.90;3.00;;;;;;;29.74;35.97;98341.70;1756633;81;27433;-58
2022/05/12 08:47:44;;;;;;;7.22;2.70;;;;;;;29.78;33.72;98339.53;1756240;81;25511;-54
2022/05/12 08:50:19;;;;;;;4.83;2.90;;;;;;;29.91;35.27;98341.55;1756003;81;25538;-59
2022/05/12 08:53:05;;;;;;;5.65;3.17;;;;;;;30.11;32.48;98345.53;1755442;81;25737;-54
2022/05/12 08:55:46;;;;;;;6.42;3.20;;;;;;;30.16;34.82;98341.30;1756432;81;25634;-59
2022/05/12 08:58:30;;;;;;;7.97;3.25;;;;;;;30.30;33.01;98337.22;1754690;81;27363;-60
2022/05/12 09:01:20;;;;;;;4.05;2.98;;;;;;;30.23;32.75;98345.96;1755003;81;25606;-57
2022/05/12 09:04:11;;;;;;;4.35;3.00;;;;;;;30.29;32.62;98337.87;1755900;81;32275;-63
2022/05/12 09:07:17;;;;;;;6.03;3.20;;;;;;;30.37;32.47;98339.02;1756350;81;25794;-58
2022/05/12 09:10:35;;;;;;;4.83;2.95;;;;;;;30.49;32.14;98348.08;1756479;81;25543;-56
2022/05/12 09:13:16;;;;;;;5.00;2.83;;;;;;;30.86;32.14;98344.77;1756258;81;27466;-63
2022/05/12 09:15:50;;;;;;;7.58;2.70;;;;;;;31.37;29.85;98342.84;1756334;81;25487;-57
2022/05/12 09:18:29;;;;;;;5.35;2.22;;;;;;;31.24;30.05;98343.54;1755307;81;25613;-57
2022/05/12 09:21:03;;;;;;;9.45;3.12;;;;;;;31.30;28.25;98331.78;1755297;81;25818;-59
2022/05/12 09:23:30;;;;;;;10.08;2.98;;;;;;;31.39;30.60;98342.38;1755775;81;25610;-62
2022/05/12 09:25:56;;;;;;;8.28;2.80;;;;;;;31.55;28.82;98342.13;1756247;81;27559;-59
2022/05/12 09:28:39;;;;;;;4.15;2.70;;;;;;;31.63;30.34;98342.62;1756141;81;25642;-65
2022/05/12 09:31:19;;;;;;;6.50;2.45;;;;;;;31.83;29.22;98347.73;1756424;81;25722;-64
2022/05/12 09:33:50;;;;;;;6.58;2.67;;;;;;;32.03;29.02;98355.19;1756358;81;26537;-62
2022/05/12 09:36:27;;;;;;;13.08;3.10;;;;;;;32.24;28.56;98348.45;1756225;81;25588;-62
2022/05/12 09:38:55;;;;;;;6.47;2.95;;;;;;;32.41;29.48;98358.84;1756423;81;26890;-57
2022/05/12 09:41:35;;;;;;;3.25;2.35;;;;;;;32.46;28.34;98344.66;1756470;81;25669;-60
2022/05/12 09:44:25;;;;;;;5.25;2.58;;;;;;;32.50;27.04;98348.18;1753601;81;25602;-55
2022/05/12 09:47:07;;;;;;;8.68;2.83;;;;;;;32.54;28.96;98357.93;1756196;81;25791;-60
2022/05/12 09:49:41;;;;;;;5.92;2.77;;;;;;;32.64;27.66;98359.49;1756065;81;25677;-64
2022/05/12 09:52:36;;;;;;;4.30;2.50;;;;;;;32.71;27.57;98356.98;1756261;81;27410;-64
2022/05/12 09:55:27;;;;;;;9.55;2.55;;;;;;;32.93;28.11;98353.94;1756312;81;25685;-63
2022/05/12 09:58:08;;;;;;;6.35;2.83;;;;;;;32.93;26.81;98366.70;1756218;81;25427;-56
2022/05/12 10:00:49;;;;;;;4.30;2.70;;;;;;;32.98;28.08;98353.93;1753898;81;25953;-64
2022/05/12 10:09:20;;;;;;;;;;;;;;;33.81;27.26;98361.90;1758539;81;25637;-66
2022/05/12 10:12:25;;;;;;;6.22;2.42;;;;;;;33.79;27.13;98359.54;1756213;81;25614;-63
2022/05/12 10:15:05;;;;;;;5.25;2.67;;;;;;;33.78;26.35;98362.20;1756029;81;25896;-60
2022/05/12 10:17:49;;;;;;;7.85;2.60;;;;;;;33.98;26.22;98343.15;1756576;81;25694;-65
2022/05/12 10:20:23;;;;;;;12.45;2.35;;;;;;;34.14;26.27;98345.45;1754520;81;27378;-65
2022/05/12 10:23:14;;;;;;;6.97;2.10;;;;;;;34.07;24.50;98345.80;1756307;81;25702;-66
2022/05/12 10:26:14;;;;;;;3.72;1.90;;;;;;;34.01;24.94;98347.07;1756074;81;25459;-64
2022/05/12 10:28:55;;;;;;;15.38;2.70;;;;;;;34.10;24.91;98333.45;1756386;81;26465;-66
2022/05/12 10:31:47;;;;;;;16.07;2.65;;;;;;;34.00;25.22;98349.15;1756219;81;25455;-64
2022/05/12 10:34:26;;;;;;;6.15;2.67;;;;;;;33.97;25.20;98343.63;1678337;85;27660;-62
2022/05/12 10:37:13;;;;;;;8.28;2.33;;;;;;;34.23;25.40;98351.07;1678404;85;25654;-65
2022/05/12 10:39:53;;;;;;;5.62;2.10;;;;;;;34.45;25.30;98341.40;1678469;85;25641;-64
2022/05/12 10:42:50;;;;;;;10.25;2.25;;;;;;;34.57;24.98;98345.27;1677427;85;25759;-62
2022/05/12 10:45:38;;;;;;;7.05;2.35;;;;;;;34.60;23.62;98337.19;1678504;85;25734;-65
2022/05/12 10:48:48;;;;;;;12.85;2.20;;;;;;;34.71;23.65;98332.34;1678398;85;25819;-59
2022/05/12 10:51:29;;;;;;;6.30;2.10;;;;;;;34.86;24.03;98332.37;1678176;85;25626;-65
2022/05/12 10:54:24;;;;;;;5.90;1.85;;;;;;;34.30;24.99;98337.10;1674082;85;25736;-66
2022/05/12 10:57:22;;;;;;;4.22;2.12;;;;;;;33.24;25.00;98365.58;1679955;85;25784;-65
2022/05/12 11:00:05;;;;;;;2.35;1.90;;;;;;;32.71;26.67;98365.48;1661338;84;25948;-64
2022/05/12 11:02:45;;;;;;;2.83;1.80;;;;;;;33.02;27.02;98360.88;1665589;84;27319;-65
2022/05/12 11:05:26;;;;;;;2.40;2.00;;;;;;;33.52;26.05;98354.09;1666146;84;25932;-61
2022/05/12 11:08:04;;;;;;;5.12;1.98;;;;;;;33.66;25.67;98357.70;1660354;84;25820;-58
2022/05/12 11:10:40;;;;;;;3.62;1.95;;;;;;;34.01;26.87;98359.23;1650788;83;25758;-66
2022/05/12 11:13:32;;;;;;;4.80;2.00;;;;;;;34.42;25.88;98355.17;1725141;82;25686;-57
2022/05/12 11:16:16;;;;;;;4.62;1.75;;;;;;;34.63;24.84;98361.02;1725042;82;27829;-60
2022/05/12 11:19:20;;;;;;;4.87;1.70;;;;;;;34.56;24.64;98372.78;1725047;83;25701;-58
2022/05/12 11:22:10;;;;;;;3.22;1.50;;;;;;;33.60;24.75;98373.03;1724958;82;25689;-56
2022/05/12 11:24:54;;;;;;;4.30;1.80;;;;;;;32.74;25.94;98377.30;1721631;82;26880;-64
2022/05/12 11:31:25;;;;;;;2.58;1.87;;;;;;;32.16;26.70;98373.48;1736809;82;25716;-60
2022/05/12 11:33:57;;;;;;;3.47;1.80;;;;;;;31.88;26.82;98383.30;1737872;82;25666;-59
2022/05/12 11:36:40;;;;;;;4.90;1.90;;;;;;;31.95;27.27;98378.02;1741625;81;25711;-59
2022/05/12 11:39:30;;;;;;;5.22;1.80;;;;;;;31.75;26.81;98381.22;1738003;82;25804;-59
2022/05/12 11:42:22;;;;;;;5.40;1.80;;;;;;;31.26;27.14;98376.42;1741738;82;25721;-58
2022/05/12 11:45:08;;;;;;;3.35;1.85;;;;;;;31.04;27.87;98387.14;1735093;81;28300;-58
2022/05/12 11:48:17;;;;;;;4.12;1.77;;;;;;;31.07;28.16;98379.76;1725980;82;25722;-58
2022/05/12 11:51:20;;;;;;;4.55;1.65;;;;;;;31.20;28.25;98377.63;1712250;82;25777;-58
2022/05/12 11:54:05;;;;;;;3.65;1.85;;;;;;;31.52;27.32;98381.92;1715828;82;25770;-60
2022/05/12 11:56:49;;;;;;;5.33;1.90;;;;;;;31.79;28.07;98396.02;1708832;82;25896;-60
2022/05/12 11:59:33;;;;;;;4.62;1.75;;;;;;;31.93;26.80;98390.43;1730200;81;27005;-65
2022/05/12 12:02:08;;;;;;;5.58;1.98;;;;;;;32.21;26.13;98390.50;1712059;82;25721;-65
2022/05/12 12:04:46;;;;;;;7.62;2.40;;;;;;;32.28;26.29;98396.48;1714532;82;25690;-63
2022/05/12 12:07:36;;;;;;;2.98;1.80;;;;;;;32.34;26.39;98394.59;1712442;82;25889;-59
2022/05/12 12:10:26;;;;;;;1.90;1.70;;;;;;;32.65;26.46;98394.33;1713175;82;25477;-59
2022/05/12 12:13:00;;;;;;;3.00;1.82;;;;;;;32.92;26.27;98392.10;1713795;82;28212;-61
2022/05/12 12:15:34;;;;;;;3.02;1.90;;;;;;;33.16;26.06;98406.29;1713280;82;25594;-65
2022/05/12 12:18:28;;;;;;;5.35;1.98;;;;;;;33.43;25.99;98413.15;1713248;82;25632;-63
2022/05/12 12:20:55;;;;;;;4.47;2.05;;;;;;;33.44;25.46;98416.13;1713358;82;25433;-64
2022/05/12 12:23:28;;;;;;;;;;;;;;;33.41;25.81;98421.34;1716003;83;25412;-65